Time;durP1;ratioP1;P1;durP2;ratioP2;P2;SDS_P1;SDS_P2;PMS_P1;PMS_P2;Temp;Humidity;BMP_temperature;BMP_pressure;BME280_temperature;BME280_humidity;BME280_pressure;Samples;Min_cycle;Max_cycle;Signal;HPM_P1;HPM_P2
2024/02/27 00:00:07;;;;;;;2.17;1.45;;;8.50;99.90;;;;;;5043468;28;20108;-76
2024/02/27 00:02:34;;;;;;;2.05;1.10;;;8.50;99.90;;;;;;5059225;28;20033;-73
2024/02/27 00:05:01;;;;;;;1.73;1.10;;;8.40;99.90;;;;;;5059493;28;20100;-76
2024/02/27 00:07:27;;;;;;;2.30;1.20;;;8.40;99.90;;;;;;5066067;28;20074;-74
2024/02/27 00:09:53;;;;;;;1.33;0.90;;;8.30;99.90;;;;;;5060831;28;20040;-74
2024/02/27 00:12:19;;;;;;;1.98;0.80;;;8.30;99.90;;;;;;5038248;28;20498;-74
2024/02/27 00:14:44;;;;;;;1.58;0.90;;;8.20;99.90;;;;;;5063089;28;20036;-74
2024/02/27 00:17:10;;;;;;;0.95;0.70;;;8.20;99.90;;;;;;5060786;28;20403;-74
2024/02/27 00:19:35;;;;;;;1.08;0.70;;;8.10;99.90;;;;;;5059544;28;20481;-74
2024/02/27 00:22:01;;;;;;;1.48;0.90;;;8.10;99.90;;;;;;5059763;28;20531;-74
2024/02/27 00:24:29;;;;;;;1.35;0.88;;;8.00;99.90;;;;;;5056579;28;20025;-74
2024/02/27 00:26:55;;;;;;;1.48;0.88;;;7.90;99.90;;;;;;5052219;28;20464;-75
2024/02/27 00:29:21;;;;;;;1.75;1.00;;;7.90;99.90;;;;;;5031581;28;20059;-74
2024/02/27 00:31:47;;;;;;;3.53;1.63;;;7.80;99.90;;;;;;5029325;28;20553;-75
2024/02/27 00:34:15;;;;;;;1.98;1.17;;;7.80;99.90;;;;;;5013972;28;20084;-75
2024/02/27 00:36:43;;;;;;;1.73;1.23;;;7.70;99.90;;;;;;5014597;28;20060;-75
2024/02/27 00:39:08;;;;;;;2.53;1.58;;;7.70;99.90;;;;;;5013598;28;20152;-74
2024/02/27 00:41:41;;;;;;;2.22;1.10;;;7.70;99.90;;;;;;5000676;28;20046;-75
2024/02/27 00:44:08;;;;;;;1.95;1.33;;;7.60;99.90;;;;;;5021109;28;20485;-74
2024/02/27 00:46:34;;;;;;;1.55;0.90;;;7.60;99.90;;;;;;5009342;28;20030;-74
2024/02/27 00:49:00;;;;;;;2.20;1.13;;;7.60;99.90;;;;;;5020905;28;20389;-75
2024/02/27 00:51:26;;;;;;;1.42;1.15;;;7.60;99.90;;;;;;4983232;28;20075;-75
2024/02/27 00:53:51;;;;;;;2.20;1.20;;;7.60;99.90;;;;;;5011647;28;20029;-75
2024/02/27 00:56:19;;;;;;;2.45;1.45;;;7.60;99.90;;;;;;5003308;28;20026;-74
2024/02/27 00:58:44;;;;;;;3.42;1.67;;;7.60;99.90;;;;;;5016766;28;20030;-74
2024/02/27 01:01:11;;;;;;;2.63;1.20;;;7.60;99.90;;;;;;5012351;28;20041;-74
2024/02/27 01:03:37;;;;;;;3.53;1.40;;;7.60;99.90;;;;;;5027730;28;20033;-74
2024/02/27 01:06:06;;;;;;;1.85;1.38;;;7.60;99.90;;;;;;5007437;28;20022;-75
2024/02/27 01:08:34;;;;;;;1.95;1.25;;;7.60;99.90;;;;;;5005410;28;20040;-75
2024/02/27 01:11:02;;;;;;;1.92;1.17;;;7.50;99.90;;;;;;5015159;28;20032;-75
2024/02/27 01:13:28;;;;;;;1.35;0.98;;;7.50;99.90;;;;;;5030075;28;20029;-75
2024/02/27 01:15:54;;;;;;;2.13;1.30;;;7.50;99.90;;;;;;4974411;28;20038;-74
2024/02/27 01:18:20;;;;;;;2.15;1.38;;;7.50;99.90;;;;;;5012619;28;20029;-74
2024/02/27 01:20:45;;;;;;;1.92;1.17;;;7.50;99.90;;;;;;5020312;28;20025;-74
2024/02/27 01:23:12;;;;;;;2.00;1.52;;;7.50;99.90;;;;;;5022933;28;20024;-74
2024/02/27 01:25:38;;;;;;;1.77;1.20;;;7.40;99.90;;;;;;5007073;28;20107;-75
2024/02/27 01:28:04;;;;;;;1.90;1.60;;;7.40;99.90;;;;;;5010169;28;20100;-74
2024/02/27 01:30:30;;;;;;;3.55;1.30;;;7.40;99.90;;;;;;5035871;28;20646;-74
2024/02/27 01:32:57;;;;;;;1.05;0.85;;;7.40;99.90;;;;;;5049609;28;20381;-74
2024/02/27 01:35:24;;;;;;;1.35;0.85;;;7.60;99.90;;;;;;5048773;28;20020;-75
2024/02/27 01:37:50;;;;;;;1.38;0.55;;;7.70;99.90;;;;;;5049252;28;20024;-75
2024/02/27 01:40:16;;;;;;;1.27;0.75;;;7.90;99.90;;;;;;5048109;28;20099;-76
2024/02/27 01:42:45;;;;;;;1.38;0.73;;;8.00;99.90;;;;;;5031200;28;20017;-75
2024/02/27 01:45:18;;;;;;;1.38;0.90;;;8.10;99.90;;;;;;5045760;28;20020;-75
2024/02/27 01:47:44;;;;;;;1.45;0.88;;;8.00;99.90;;;;;;5015685;28;20047;-75
2024/02/27 01:50:10;;;;;;;1.65;1.20;;;7.90;99.90;;;;;;5048267;28;20468;-75
2024/02/27 01:52:37;;;;;;;1.60;1.10;;;7.90;99.90;;;;;;5048645;28;20024;-75
2024/02/27 01:55:03;;;;;;;1.20;1.10;;;7.80;99.90;;;;;;5012612;28;20033;-75
2024/02/27 01:57:30;;;;;;;1.95;1.40;;;7.80;99.90;;;;;;5048856;28;20029;-75
2024/02/27 01:59:56;;;;;;;2.15;1.20;;;7.80;99.90;;;;;;5048621;28;20044;-75
2024/02/27 02:02:23;;;;;;;4.65;1.77;;;7.70;99.90;;;;;;5046963;28;20029;-75
2024/02/27 02:04:48;;;;;;;2.03;1.50;;;7.70;99.90;;;;;;5048571;28;20028;-77
2024/02/27 02:07:14;;;;;;;3.80;1.70;;;7.70;99.90;;;;;;5049080;28;20656;-75
2024/02/27 02:09:40;;;;;;;4.60;1.65;;;7.60;99.90;;;;;;5052382;28;20021;-75
2024/02/27 02:12:07;;;;;;;3.00;1.60;;;7.60;99.90;;;;;;5035792;28;20033;-75
2024/02/27 02:14:33;;;;;;;3.13;1.70;;;7.50;99.90;;;;;;5048429;28;20111;-75
2024/02/27 02:17:01;;;;;;;5.95;1.92;;;7.50;99.90;;;;;;5023891;28;20124;-75
2024/02/27 02:19:30;;;;;;;2.42;1.70;;;7.40;99.90;;;;;;5035721;28;20478;-75
2024/02/27 02:21:57;;;;;;;4.30;1.85;;;7.40;99.90;;;;;;5047875;28;20101;-75
2024/02/27 02:24:25;;;;;;;3.25;2.03;;;7.40;99.90;;;;;;5048659;28;20056;-75
2024/02/27 02:26:52;;;;;;;2.72;2.00;;;7.40;99.90;;;;;;4994276;28;20030;-75
2024/02/27 02:29:18;;;;;;;5.50;2.60;;;7.30;99.90;;;;;;4977848;28;20273;-75
2024/02/27 02:31:44;;;;;;;4.47;2.72;;;7.40;99.90;;;;;;5019631;28;20544;-76
2024/02/27 02:34:10;;;;;;;5.57;3.03;;;7.40;99.90;;;;;;5018301;28;20057;-75
2024/02/27 02:36:35;;;;;;;5.38;3.17;;;7.50;99.90;;;;;;5013558;28;20042;-75
2024/02/27 02:39:01;;;;;;;5.07;3.60;;;7.50;99.90;;;;;;5020985;28;20042;-76
2024/02/27 02:41:27;;;;;;;9.68;4.65;;;7.60;99.90;;;;;;5024480;28;20065;-76
2024/02/27 02:43:55;;;;;;;6.28;4.38;;;7.60;99.90;;;;;;5009698;28;20512;-75
2024/02/27 02:46:21;;;;;;;6.90;4.20;;;7.60;99.90;;;;;;5025647;28;20037;-75
2024/02/27 02:48:47;;;;;;;7.20;4.97;;;7.70;99.90;;;;;;5002455;28;20029;-75
2024/02/27 02:51:13;;;;;;;7.70;5.13;;;7.60;99.90;;;;;;5024282;28;20018;-75
2024/02/27 02:53:40;;;;;;;8.52;5.70;;;7.50;99.90;;;;;;5003206;28;20053;-76
2024/02/27 02:56:08;;;;;;;9.55;5.90;;;7.60;99.90;;;;;;5023178;28;20558;-76
2024/02/27 02:58:35;;;;;;;8.57;5.75;;;7.50;99.90;;;;;;5035034;28;20412;-76
2024/02/27 03:01:02;;;;;;;10.32;6.20;;;7.50;99.90;;;;;;5035275;28;20491;-76
2024/02/27 03:03:29;;;;;;;12.35;5.88;;;7.50;99.90;;;;;;5048948;28;20029;-76
2024/02/27 03:05:55;;;;;;;11.05;6.32;;;7.50;99.90;;;;;;5052610;28;20013;-74
2024/02/27 03:08:21;;;;;;;9.90;6.55;;;7.40;99.90;;;;;;5047220;28;20171;-74
2024/02/27 03:10:47;;;;;;;10.27;6.50;;;7.40;99.90;;;;;;5029179;28;20171;-75
2024/02/27 03:13:12;;;;;;;11.25;6.85;;;7.40;99.90;;;;;;5046709;28;20024;-74
2024/02/27 03:15:39;;;;;;;11.93;6.75;;;7.40;99.90;;;;;;5051284;28;20088;-74
2024/02/27 03:18:05;;;;;;;9.88;6.28;;;7.40;99.90;;;;;;5049823;28;20491;-76
2024/02/27 03:20:30;;;;;;;8.90;5.90;;;7.30;99.90;;;;;;5051905;28;20025;-74
2024/02/27 03:23:02;;;;;;;9.52;6.20;;;7.40;99.90;;;;;;5050482;28;20480;-75
2024/02/27 03:25:28;;;;;;;8.38;5.88;;;7.50;99.90;;;;;;5052137;28;20481;-76
2024/02/27 03:27:54;;;;;;;11.27;6.75;;;7.40;99.90;;;;;;5052378;28;20033;-76
2024/02/27 03:30:20;;;;;;;12.23;7.53;;;7.40;99.90;;;;;;5050860;28;20044;-76
2024/02/27 03:32:45;;;;;;;10.65;7.03;;;7.40;99.90;;;;;;5051596;28;20090;-75
2024/02/27 03:35:11;;;;;;;11.20;6.85;;;7.40;99.90;;;;;;5050336;28;20021;-76
2024/02/27 03:37:38;;;;;;;12.05;6.93;;;7.40;99.90;;;;;;5052271;28;20537;-76
2024/02/27 03:40:07;;;;;;;13.52;7.28;;;7.30;99.90;;;;;;5050868;28;20036;-76
2024/02/27 03:42:34;;;;;;;10.35;6.88;;;7.20;99.90;;;;;;5033740;28;20033;-76
2024/02/27 03:45:00;;;;;;;13.15;6.95;;;7.10;99.90;;;;;;5050733;28;20069;-76
2024/02/27 03:47:26;;;;;;;12.43;7.22;;;7.10;99.90;;;;;;5016571;28;20063;-76
2024/02/27 03:49:52;;;;;;;11.05;7.18;;;7.10;99.90;;;;;;5050950;28;20525;-76
2024/02/27 03:52:18;;;;;;;11.35;6.45;;;7.00;99.90;;;;;;5050325;28;20104;-76
2024/02/27 03:54:46;;;;;;;13.85;7.10;;;7.10;99.90;;;;;;5033411;28;20032;-76
2024/02/27 03:57:13;;;;;;;11.05;7.05;;;7.10;99.90;;;;;;5050962;28;20021;-76
2024/02/27 03:59:39;;;;;;;12.05;7.22;;;7.10;99.90;;;;;;5051244;28;20029;-75
2024/02/27 04:02:07;;;;;;;12.73;7.50;;;7.20;99.90;;;;;;5036874;28;20037;-76
2024/02/27 04:04:32;;;;;;;11.02;7.13;;;7.20;99.90;;;;;;5051965;28;20021;-75
2024/02/27 04:06:58;;;;;;;12.35;7.80;;;7.20;99.90;;;;;;5051037;28;20101;-75
2024/02/27 04:09:24;;;;;;;10.60;6.75;;;7.10;99.90;;;;;;5047489;28;20029;-73
2024/02/27 04:11:50;;;;;;;11.25;6.95;;;7.20;99.90;;;;;;5028527;28;20136;-75
2024/02/27 04:14:15;;;;;;;10.95;6.88;;;7.10;99.90;;;;;;5049703;28;20027;-75
2024/02/27 04:16:41;;;;;;;11.57;7.32;;;7.10;99.90;;;;;;5034262;28;20386;-75
2024/02/27 04:19:07;;;;;;;12.07;7.20;;;7.20;99.90;;;;;;5043120;28;20496;-76
2024/02/27 04:21:33;;;;;;;12.35;7.15;;;7.20;99.90;;;;;;5030525;28;20369;-74
2024/02/27 04:23:58;;;;;;;11.80;7.50;;;7.10;99.90;;;;;;5031572;28;20087;-75
2024/02/27 04:26:24;;;;;;;13.30;8.18;;;7.20;99.90;;;;;;5030382;28;20144;-74
2024/02/27 04:28:51;;;;;;;16.58;8.63;;;7.20;99.90;;;;;;5049485;28;20036;-75
2024/02/27 04:31:16;;;;;;;15.20;8.32;;;7.30;99.90;;;;;;5041538;28;20051;-74
2024/02/27 04:33:42;;;;;;;11.35;7.15;;;7.20;99.90;;;;;;5050048;28;20037;-75
2024/02/27 04:36:09;;;;;;;12.00;7.88;;;7.30;99.90;;;;;;5048868;28;20360;-74
2024/02/27 04:38:35;;;;;;;13.40;7.88;;;7.30;99.90;;;;;;5049961;28;20036;-74
2024/02/27 04:41:03;;;;;;;12.85;8.27;;;7.20;99.90;;;;;;5046092;28;20032;-74
2024/02/27 04:43:29;;;;;;;15.02;8.63;;;7.10;99.90;;;;;;5048875;28;20384;-74
2024/02/27 04:45:56;;;;;;;13.75;8.88;;;7.10;99.90;;;;;;5041108;28;20618;-74
2024/02/27 04:48:22;;;;;;;15.02;8.85;;;7.10;99.90;;;;;;5049701;28;20108;-74
2024/02/27 04:50:48;;;;;;;17.17;8.90;;;7.10;99.90;;;;;;5048776;28;20078;-74
2024/02/27 04:53:13;;;;;;;12.82;8.30;;;7.10;99.90;;;;;;5044650;28;20037;-74
2024/02/27 04:55:41;;;;;;;14.00;8.98;;;7.10;99.90;;;;;;5041198;28;20443;-75
2024/02/27 04:58:06;;;;;;;15.55;9.25;;;7.10;99.90;;;;;;5049838;28;20035;-75
2024/02/27 05:00:32;;;;;;;15.10;8.65;;;7.10;99.90;;;;;;5050255;28;20025;-75
2024/02/27 05:02:58;;;;;;;11.85;8.20;;;7.10;99.90;;;;;;5060751;28;20043;-75
2024/02/27 05:05:24;;;;;;;12.02;7.78;;;7.10;99.90;;;;;;5059507;28;20151;-76
2024/02/27 05:07:49;;;;;;;16.60;9.32;;;7.10;99.90;;;;;;5071659;28;20092;-75
2024/02/27 05:10:15;;;;;;;13.77;8.57;;;7.10;99.90;;;;;;5071354;28;20044;-74
2024/02/27 05:12:42;;;;;;;14.43;8.82;;;7.20;99.90;;;;;;5074896;28;20028;-75
2024/02/27 05:15:09;;;;;;;14.40;8.82;;;7.20;99.90;;;;;;5074911;28;20031;-72
2024/02/27 05:17:36;;;;;;;14.05;8.52;;;7.20;99.90;;;;;;5059215;28;20037;-76
2024/02/27 05:20:03;;;;;;;13.98;8.18;;;7.20;99.90;;;;;;5055766;28;20029;-75
2024/02/27 05:22:29;;;;;;;14.27;8.90;;;7.20;99.90;;;;;;5055852;28;20115;-76
2024/02/27 05:24:55;;;;;;;14.45;9.07;;;7.20;99.90;;;;;;5051891;28;20048;-76
2024/02/27 05:27:20;;;;;;;12.52;7.57;;;7.30;99.90;;;;;;5053629;28;20031;-76
2024/02/27 05:29:46;;;;;;;16.48;9.05;;;7.30;99.90;;;;;;5059057;28;20104;-76
2024/02/27 05:32:12;;;;;;;14.85;9.45;;;7.30;99.90;;;;;;5049931;28;20147;-75
2024/02/27 05:34:37;;;;;;;15.63;9.57;;;7.30;99.90;;;;;;5047901;28;20052;-75
2024/02/27 05:37:03;;;;;;;14.38;9.15;;;7.30;99.90;;;;;;5048467;28;20025;-75
2024/02/27 05:39:29;;;;;;;15.93;9.70;;;7.30;99.90;;;;;;5048656;28;20032;-76
2024/02/27 05:41:55;;;;;;;16.80;10.00;;;7.30;99.90;;;;;;5049780;28;20044;-76
2024/02/27 05:44:22;;;;;;;15.27;9.57;;;7.20;99.90;;;;;;5048758;28;20877;-76
2024/02/27 05:46:47;;;;;;;20.38;10.43;;;7.30;99.90;;;;;;5032105;28;20083;-76
2024/02/27 05:49:15;;;;;;;19.40;10.73;;;7.30;99.90;;;;;;5013886;28;20028;-75
2024/02/27 05:51:41;;;;;;;19.00;10.60;;;7.20;99.90;;;;;;5031505;28;20031;-75
2024/02/27 05:54:08;;;;;;;18.13;10.40;;;7.20;99.90;;;;;;5047978;28;20052;-73
2024/02/27 05:56:34;;;;;;;16.55;10.27;;;7.10;99.90;;;;;;5031816;28;20373;-73
2024/02/27 05:59:00;;;;;;;19.95;11.88;;;7.10;99.90;;;;;;5048248;28;20055;-73
2024/02/27 06:01:27;;;;;;;19.23;11.35;;;7.10;99.90;;;;;;5049632;28;20104;-72
2024/02/27 06:03:52;;;;;;;17.63;11.52;;;7.10;99.90;;;;;;5011058;28;20482;-72
2024/02/27 06:06:19;;;;;;;19.13;12.23;;;7.10;99.90;;;;;;5052073;28;20071;-72
2024/02/27 06:08:46;;;;;;;18.45;11.57;;;7.10;99.90;;;;;;5053686;28;20052;-73
2024/02/27 06:11:11;;;;;;;19.02;11.05;;;7.10;99.90;;;;;;5046701;28;20071;-72
2024/02/27 06:13:37;;;;;;;20.63;11.55;;;7.10;99.90;;;;;;5049373;28;20500;-71
2024/02/27 06:16:04;;;;;;;17.15;10.93;;;7.10;99.90;;;;;;5048653;28;20090;-72
2024/02/27 06:18:30;;;;;;;22.85;11.98;;;7.10;99.90;;;;;;5049841;28;20117;-73
2024/02/27 06:23:41;;;;;;;20.08;12.07;;;7.00;99.90;;;;;;5042149;28;20043;-72
2024/02/27 06:26:09;;;;;;;18.23;11.77;;;7.00;99.90;;;;;;5050561;28;20037;-72
2024/02/27 06:28:34;;;;;;;17.95;11.43;;;6.90;99.90;;;;;;5048272;28;20029;-72
2024/02/27 06:31:00;;;;;;;18.45;12.02;;;6.90;99.90;;;;;;5036116;28;20099;-70
2024/02/27 06:33:26;;;;;;;22.73;12.55;;;6.90;99.90;;;;;;5049307;28;20492;-71
2024/02/27 06:35:52;;;;;;;19.88;12.40;;;6.90;99.90;;;;;;5047159;28;20025;-71
2024/02/27 06:38:17;;;;;;;19.48;12.30;;;6.90;99.90;;;;;;5047397;28;20029;-72
2024/02/27 06:40:44;;;;;;;21.95;12.77;;;6.90;99.90;;;;;;5046820;28;20534;-71
2024/02/27 06:43:12;;;;;;;20.45;12.80;;;7.00;99.90;;;;;;5047245;28;20462;-73
2024/02/27 06:45:40;;;;;;;20.30;12.35;;;7.00;99.90;;;;;;5048889;28;20013;-72
2024/02/27 06:48:09;;;;;;;21.10;13.68;;;7.00;99.90;;;;;;5055730;28;20025;-72
2024/02/27 06:50:36;;;;;;;27.40;14.00;;;6.90;99.90;;;;;;5065814;28;20032;-72
2024/02/27 06:53:03;;;;;;;23.80;14.05;;;7.00;99.90;;;;;;5051589;28;20100;-71
2024/02/27 06:55:30;;;;;;;23.98;13.88;;;7.00;99.90;;;;;;5052304;28;20020;-71
2024/02/27 06:57:56;;;;;;;24.08;13.75;;;7.00;99.90;;;;;;5052431;28;20032;-72
2024/02/27 07:00:23;;;;;;;22.70;14.45;;;7.00;99.90;;;;;;5052057;28;20029;-73
2024/02/27 07:02:50;;;;;;;25.58;14.15;;;7.00;99.90;;;;;;5052692;28;20506;-75
2024/02/27 07:05:17;;;;;;;28.83;15.32;;;7.10;99.90;;;;;;5033231;28;20052;-76
2024/02/27 07:07:42;;;;;;;23.23;14.85;;;7.10;99.90;;;;;;5051920;28;20063;-71
2024/02/27 07:10:09;;;;;;;23.77;14.05;;;7.10;99.90;;;;;;5042994;28;20040;-70
2024/02/27 07:12:35;;;;;;;28.70;16.52;;;7.10;99.90;;;;;;5057457;28;20055;-71
2024/02/27 07:15:00;;;;;;;29.95;16.17;;;7.10;99.90;;;;;;5051882;28;20496;-71
2024/02/27 07:17:27;;;;;;;25.27;15.77;;;7.10;99.90;;;;;;5056061;28;20056;-71
2024/02/27 07:19:53;;;;;;;26.55;14.38;;;7.20;99.90;;;;;;5055466;28;20029;-70
2024/02/27 07:22:20;;;;;;;25.58;15.85;;;7.10;99.90;;;;;;5050436;28;20393;-74
2024/02/27 07:24:55;;;;;;;24.25;14.70;;;7.10;99.90;;;;;;5050328;28;20025;-73
2024/02/27 07:27:21;;;;;;;27.80;15.88;;;7.10;99.90;;;;;;5037287;28;20527;-74
2024/02/27 07:29:47;;;;;;;26.70;15.93;;;7.20;99.90;;;;;;5051515;28;20112;-75
2024/02/27 07:32:14;;;;;;;26.77;16.08;;;7.10;99.90;;;;;;5051599;28;20045;-74
2024/02/27 07:34:42;;;;;;;24.13;15.27;;;7.10;99.90;;;;;;5048817;28;20059;-74
2024/02/27 07:37:09;;;;;;;25.50;15.60;;;7.20;99.90;;;;;;5038665;28;20025;-73
2024/02/27 07:39:36;;;;;;;26.27;16.33;;;7.30;99.90;;;;;;5051865;28;20017;-74
2024/02/27 07:42:04;;;;;;;26.35;16.08;;;7.30;99.90;;;;;;5042536;28;20029;-73
2024/02/27 07:44:30;;;;;;;27.25;15.73;;;7.40;99.90;;;;;;5051381;28;20362;-73
2024/02/27 07:46:55;;;;;;;27.73;15.77;;;7.40;99.90;;;;;;5057063;28;20032;-73
2024/02/27 07:49:21;;;;;;;27.70;15.43;;;7.50;99.90;;;;;;5050761;28;20437;-73
2024/02/27 07:51:46;;;;;;;26.35;16.05;;;7.50;99.90;;;;;;5053188;28;20021;-73
2024/02/27 07:54:16;;;;;;;28.10;17.00;;;7.70;99.90;;;;;;5050289;28;20098;-73
2024/02/27 07:56:42;;;;;;;27.20;16.45;;;7.70;99.90;;;;;;5050957;28;20779;-74
2024/02/27 07:59:08;;;;;;;23.77;15.27;;;7.70;99.90;;;;;;5047029;28;20542;-74
2024/02/27 08:01:33;;;;;;;25.00;15.35;;;7.70;99.90;;;;;;5057825;28;20025;-71
2024/02/27 08:04:00;;;;;;;28.17;15.88;;;7.80;99.90;;;;;;5050585;28;20028;-71
2024/02/27 08:06:27;;;;;;;25.10;16.05;;;7.80;99.90;;;;;;5051509;28;20126;-71
2024/02/27 08:08:55;;;;;;;25.95;16.20;;;7.90;99.90;;;;;;5051330;28;20028;-71
2024/02/27 08:11:22;;;;;;;24.33;15.68;;;8.00;99.90;;;;;;5049714;28;20024;-71
2024/02/27 08:13:48;;;;;;;25.00;16.02;;;8.10;99.90;;;;;;5050500;28;20017;-71
2024/02/27 08:16:15;;;;;;;23.73;15.82;;;8.20;99.90;;;;;;5050052;28;20028;-71
2024/02/27 08:18:41;;;;;;;23.42;16.02;;;8.30;99.90;;;;;;5049180;28;20040;-72
2024/02/27 08:21:07;;;;;;;24.63;15.35;;;8.40;99.90;;;;;;5050245;28;20021;-72
2024/02/27 08:23:32;;;;;;;23.33;15.20;;;8.50;99.90;;;;;;5045806;28;20009;-72
2024/02/27 08:25:58;;;;;;;24.92;15.70;;;8.50;99.90;;;;;;5049318;28;20032;-71
2024/02/27 08:28:25;;;;;;;27.15;15.68;;;8.50;99.90;;;;;;5050947;28;20104;-72
2024/02/27 08:30:51;;;;;;;22.58;15.30;;;8.60;99.90;;;;;;5049725;28;20076;-71
2024/02/27 08:33:17;;;;;;;28.70;16.73;;;8.60;99.90;;;;;;5049598;28;20447;-71
2024/02/27 08:35:43;;;;;;;25.15;15.32;;;8.60;99.90;;;;;;5051215;28;20025;-71
2024/02/27 08:38:08;;;;;;;26.73;16.20;;;8.60;99.90;;;;;;5059006;28;20039;-71
2024/02/27 08:40:34;;;;;;;26.10;15.95;;;8.60;99.90;;;;;;5061566;28;20032;-71
2024/02/27 08:43:01;;;;;;;24.88;15.43;;;8.60;99.90;;;;;;5041100;28;20021;-74
2024/02/27 08:45:27;;;;;;;24.05;15.55;;;8.70;99.90;;;;;;5062906;28;20028;-72
2024/02/27 08:47:53;;;;;;;27.40;15.80;;;8.70;99.90;;;;;;5056029;28;20025;-74
2024/02/27 08:50:20;;;;;;;26.65;16.17;;;8.80;99.90;;;;;;5054088;28;20033;-75
2024/02/27 08:52:46;;;;;;;22.38;14.88;;;8.70;99.90;;;;;;5019236;22;20506;-69
2024/02/27 08:55:11;;;;;;;23.80;15.55;;;8.70;99.90;;;;;;4991271;28;20014;-69
2024/02/27 08:57:37;;;;;;;24.10;14.77;;;8.80;99.90;;;;;;4991713;28;20049;-68
2024/02/27 09:00:06;;;;;;;24.40;16.27;;;8.80;99.90;;;;;;4999685;28;20095;-69
2024/02/27 09:02:37;;;;;;;31.77;17.50;;;8.90;99.90;;;;;;5011679;28;20021;-68
2024/02/27 09:05:03;;;;;;;29.27;16.92;;;8.90;99.90;;;;;;5011227;28;20028;-68
2024/02/27 09:07:29;;;;;;;24.80;15.43;;;8.80;99.90;;;;;;4994892;28;20478;-69
2024/02/27 09:09:55;;;;;;;24.55;15.20;;;8.80;99.90;;;;;;5011061;28;20041;-68
2024/02/27 09:12:23;;;;;;;23.17;15.23;;;8.80;99.90;;;;;;5007680;28;20049;-71
2024/02/27 09:14:49;;;;;;;24.13;14.82;;;8.90;99.90;;;;;;5010240;28;20026;-70
2024/02/27 09:17:15;;;;;;;26.95;16.25;;;8.90;99.90;;;;;;5010790;28;20091;-70
2024/02/27 09:19:40;;;;;;;23.45;15.52;;;9.10;99.90;;;;;;5008725;28;20473;-70
2024/02/27 09:22:06;;;;;;;24.83;15.57;;;9.20;99.90;;;;;;5010274;28;20034;-69
2024/02/27 09:24:31;;;;;;;23.60;15.60;;;9.30;99.90;;;;;;5010476;28;20049;-70
2024/02/27 09:26:58;;;;;;;23.02;15.55;;;9.20;99.90;;;;;;5009323;28;20422;-70
2024/02/27 09:29:23;;;;;;;23.00;15.65;;;9.20;99.90;;;;;;5015635;28;20808;-70
2024/02/27 09:31:49;;;;;;;27.48;15.82;;;9.10;99.90;;;;;;5010520;28;20018;-71
2024/02/27 09:34:15;;;;;;;24.02;15.02;;;9.00;99.90;;;;;;5010129;28;20418;-70
2024/02/27 09:36:40;;;;;;;27.30;16.33;;;9.00;99.90;;;;;;5010868;28;20069;-70
2024/02/27 09:39:08;;;;;;;26.23;16.58;;;8.90;99.90;;;;;;5009703;28;20033;-70
2024/02/27 09:41:43;;;;;;;29.13;16.27;;;8.90;99.90;;;;;;5014068;28;20018;-70
2024/02/27 09:44:09;;;;;;;28.50;16.10;;;9.00;99.90;;;;;;5016439;28;20097;-70
2024/02/27 09:46:38;;;;;;;26.98;15.55;;;9.00;99.90;;;;;;4999283;28;20049;-70
2024/02/27 09:49:05;;;;;;;25.43;15.97;;;8.90;99.90;;;;;;4997324;28;20018;-70
2024/02/27 09:51:33;;;;;;;28.80;16.13;;;8.90;99.90;;;;;;5015185;28;20033;-71
2024/02/27 09:54:00;;;;;;;30.13;17.25;;;8.80;99.90;;;;;;5009983;28;20038;-70
2024/02/27 09:56:27;;;;;;;33.25;17.95;;;8.80;99.90;;;;;;5011663;28;20014;-70
2024/02/27 09:58:54;;;;;;;26.45;16.63;;;8.90;99.90;;;;;;5011777;28;20034;-70
2024/02/27 10:01:22;;;;;;;26.13;16.15;;;8.90;99.90;;;;;;5010565;28;20072;-70
2024/02/27 10:03:48;;;;;;;29.05;16.52;;;8.90;99.90;;;;;;5011860;28;20021;-70
2024/02/27 10:06:15;;;;;;;27.80;16.65;;;8.90;99.90;;;;;;5009098;28;20105;-70
2024/02/27 10:08:50;;;;;;;30.80;17.10;;;9.00;99.90;;;;;;5011192;28;20033;-70
2024/02/27 10:11:18;;;;;;;33.58;17.92;;;9.00;99.90;;;;;;4977310;28;20359;-70
2024/02/27 10:13:44;;;;;;;26.65;17.17;;;9.00;99.90;;;;;;5010743;28;20527;-70
2024/02/27 10:16:12;;;;;;;26.00;17.30;;;9.10;99.90;;;;;;5009022;28;20076;-70
2024/02/27 10:18:38;;;;;;;25.50;17.70;;;9.10;99.90;;;;;;5009165;28;20029;-70
2024/02/27 10:21:04;;;;;;;30.42;16.77;;;9.20;99.90;;;;;;5009356;28;20022;-70
2024/02/27 10:23:31;;;;;;;29.50;16.90;;;9.20;99.90;;;;;;5010177;28;20025;-69
2024/02/27 10:26:10;;;;;;;25.85;16.83;;;9.30;99.90;;;;;;5013925;28;20084;-69
2024/02/27 10:28:36;;;;;;;33.22;18.23;;;9.30;99.90;;;;;;4996054;28;20440;-70
2024/02/27 10:31:09;;;;;;;27.38;17.45;;;9.30;99.90;;;;;;4996289;28;20038;-69
2024/02/27 10:33:38;;;;;;;23.63;16.50;;;9.40;99.90;;;;;;5014137;28;20068;-69
2024/02/27 10:36:04;;;;;;;31.08;18.38;;;9.40;99.90;;;;;;5013266;28;20469;-69
2024/02/27 10:38:29;;;;;;;28.17;18.02;;;9.50;99.90;;;;;;5011748;28;20029;-74
2024/02/27 10:40:55;;;;;;;28.85;18.15;;;9.50;99.90;;;;;;5013860;28;20025;-72
2024/02/27 10:43:21;;;;;;;27.40;17.63;;;9.50;99.90;;;;;;5013502;28;20025;-73
2024/02/27 10:45:48;;;;;;;27.95;17.27;;;9.50;99.90;;;;;;5013670;28;20029;-75
2024/02/27 10:48:16;;;;;;;24.15;15.85;;;9.60;99.90;;;;;;5013431;28;20101;-74
2024/02/27 10:50:43;;;;;;;26.23;17.13;;;9.70;99.90;;;;;;5013810;28;20465;-71
2024/02/27 10:53:10;;;;;;;31.52;18.52;;;9.80;99.90;;;;;;5010015;28;20156;-74
2024/02/27 10:55:39;;;;;;;28.15;18.38;;;9.90;99.90;;;;;;5013909;28;20021;-73
2024/02/27 10:58:05;;;;;;;27.40;17.88;;;10.00;99.90;;;;;;5012760;28;20026;-73
2024/02/27 11:00:32;;;;;;;34.50;17.73;;;10.00;99.90;;;;;;5020112;28;20045;-73
2024/02/27 11:03:01;;;;;;;26.48;17.25;;;10.00;99.90;;;;;;5013358;28;20080;-70
2024/02/27 11:05:29;;;;;;;27.60;17.27;;;10.10;99.90;;;;;;5013256;28;20363;-73
2024/02/27 11:07:55;;;;;;;27.98;17.23;;;10.10;99.90;;;;;;5013484;28;20044;-74
2024/02/27 11:10:25;;;;;;;29.40;18.88;;;10.20;99.90;;;;;;5012562;28;20030;-73
2024/02/27 11:12:52;;;;;;;;;;;10.30;99.90;;;;;;5011706;28;20108;-72
2024/02/27 11:15:19;;;;;;;25.58;17.13;;;10.40;99.90;;;;;;5012173;28;20622;-73
2024/02/27 11:17:51;;;;;;;27.75;17.60;;;10.60;99.90;;;;;;5013407;28;20379;-70
2024/02/27 11:20:17;;;;;;;31.92;17.13;;;10.70;99.90;;;;;;5011456;28;20540;-71
2024/02/27 11:22:44;;;;;;;24.38;16.58;;;10.80;99.90;;;;;;5012813;28;20057;-72
2024/02/27 11:25:10;;;;;;;30.15;18.10;;;10.80;99.90;;;;;;5012214;28;20375;-73
2024/02/27 11:27:37;;;;;;;29.10;17.95;;;10.90;99.90;;;;;;5012913;28;20018;-72
2024/02/27 11:30:06;;;;;;;24.77;16.30;;;11.10;99.90;;;;;;5011941;28;20117;-72
2024/02/27 11:32:32;;;;;;;27.38;16.92;;;11.10;99.90;;;;;;4995280;28;20163;-72
2024/02/27 11:34:59;;;;;;;25.45;15.45;;;11.00;99.90;;;;;;5012205;28;20033;-70
2024/02/27 11:37:25;;;;;;;29.45;17.20;;;11.00;99.90;;;;;;5010751;28;20049;-72
2024/02/27 11:39:51;;;;;;;23.10;15.75;;;11.20;99.90;;;;;;5012366;28;20080;-71
2024/02/27 11:42:32;;;;;;;28.85;17.00;;;11.20;99.90;;;;;;5012552;28;20101;-71
2024/02/27 11:45:15;;;;;;;27.88;17.52;;;11.30;99.90;;;;;;5011188;28;20032;-71
2024/02/27 11:47:41;;;;;;;25.50;17.02;;;11.50;99.90;;;;;;5013117;28;20362;-72
2024/02/27 11:50:12;;;;;;;25.67;16.55;;;11.70;99.90;;;;;;5011738;28;20037;-72
2024/02/27 11:52:45;;;;;;;26.20;17.05;;;11.80;99.90;;;;;;5012354;28;20467;-68
2024/02/27 11:55:12;;;;;;;24.95;15.98;;;11.90;99.90;;;;;;5000316;28;20022;-71
2024/02/27 11:57:38;;;;;;;27.95;17.55;;;12.00;99.90;;;;;;5012634;28;20432;-71
2024/02/27 12:00:22;;;;;;;27.25;17.95;;;11.80;99.90;;;;;;5011694;28;20064;-71
2024/02/27 12:02:48;;;;;;;23.85;17.00;;;11.60;99.90;;;;;;5019876;28;20067;-71
2024/02/27 12:05:16;;;;;;;26.15;17.75;;;11.50;99.90;;;;;;5011398;28;20022;-70
2024/02/27 12:07:42;;;;;;;27.98;19.90;;;11.30;99.90;;;;;;5012934;28;20029;-71
2024/02/27 12:10:12;;;;;;;26.50;17.92;;;11.10;99.90;;;;;;5011380;28;20548;-71
2024/02/27 12:12:38;;;;;;;;;;;10.90;99.90;;;;;;5013291;28;20021;-68
2024/02/27 12:15:04;;;;;;;28.50;18.40;;;10.90;99.90;;;;;;5011315;28;19963;-68
2024/02/27 12:17:31;;;;;;;25.95;17.90;;;10.80;99.90;;;;;;5012480;28;20052;-68
2024/02/27 12:19:59;;;;;;;26.38;17.08;;;10.70;99.90;;;;;;5009812;28;20371;-68
2024/02/27 12:22:25;;;;;;;28.30;18.95;;;10.60;99.90;;;;;;5011422;28;20489;-68
2024/02/27 12:24:58;;;;;;;29.48;18.92;;;10.50;99.90;;;;;;5011331;28;20101;-68
2024/02/27 12:27:24;;;;;;;30.50;20.17;;;10.40;99.90;;;;;;5011703;28;20048;-68
2024/02/27 12:29:50;;;;;;;31.73;20.88;;;10.40;99.90;;;;;;5011305;28;20022;-68
2024/02/27 12:32:16;;;;;;;33.60;22.55;;;10.30;99.90;;;;;;5012093;28;20133;-68
2024/02/27 12:34:42;;;;;;;31.85;21.80;;;10.30;99.90;;;;;;5011486;28;20030;-69
2024/02/27 12:37:08;;;;;;;36.42;22.80;;;10.20;99.90;;;;;;5011375;28;20108;-68
2024/02/27 12:39:34;;;;;;;33.67;21.17;;;10.10;99.90;;;;;;5009158;28;20024;-69
2024/02/27 12:42:03;;;;;;;32.28;21.77;;;10.10;99.90;;;;;;5011764;28;20022;-68